Time;durP1;ratioP1;P1;durP2;ratioP2;P2;SDS_P1;SDS_P2;PMS_P1;PMS_P2;Temp;Humidity;BMP_temperature;BMP_pressure;BME280_temperature;BME280_humidity;BME280_pressure;Samples;Min_cycle;Max_cycle;Signal;HPM_P1;HPM_P2
2024/04/02 00:01:34;;;;;;;0.00;0.00;;;;;;;-145.06;100.00;52183.53;10481826;28;20165;-72
2024/04/02 00:06:35;;;;;;;0.00;0.00;;;;;;;-145.06;100.00;52177.44;10476398;28;20028;-72
2024/04/02 00:11:35;;;;;;;0.10;0.10;;;;;;;-145.06;100.00;52195.66;10480332;28;20478;-72
2024/04/02 00:16:35;;;;;;;0.00;0.00;;;;;;;-145.06;100.00;52215.91;10478748;28;20028;-73
2024/04/02 00:21:35;;;;;;;0.00;0.00;;;;;;;-145.06;100.00;52240.19;10473794;28;20025;-72
2024/04/02 00:26:36;;;;;;;0.10;0.10;;;;;;;-145.06;100.00;52250.31;10470220;28;20081;-72
2024/04/02 00:31:36;;;;;;;0.00;0.00;;;;;;;-145.06;100.00;52264.50;10466060;28;20024;-72
2024/04/02 00:36:36;;;;;;;0.10;0.10;;;;;;;-145.06;100.00;52294.84;10479802;28;20029;-72
2024/04/02 00:41:37;;;;;;;0.00;0.00;;;;;;;-145.06;100.00;52337.38;10481745;28;20111;-72
2024/04/02 00:46:37;;;;;;;0.10;0.10;;;;;;;-145.06;100.00;52329.28;10477860;28;20493;-72
2024/04/02 00:51:37;;;;;;;0.10;0.10;;;;;;;-145.06;100.00;52353.56;10478039;28;20017;-72
2024/04/02 00:56:39;;;;;;;0.10;0.10;;;;;;;-145.06;100.00;52343.44;10477142;28;20024;-72
2024/04/02 01:01:39;;;;;;;0.10;0.10;;;;;;;-145.06;100.00;52349.50;10480148;28;20103;-72
2024/04/02 01:06:39;;;;;;;0.10;0.10;;;;;;;-145.06;100.00;52337.38;10476821;28;20017;-72
2024/04/02 01:11:41;;;;;;;0.00;0.00;;;;;;;-145.06;100.00;52311.06;10475192;28;20024;-72
2024/04/02 01:16:42;;;;;;;0.10;0.10;;;;;;;-145.06;100.00;52317.13;10479976;28;20021;-73
2024/04/02 01:21:42;;;;;;;0.10;0.10;;;;;;;-145.06;100.00;52315.09;10477293;28;20025;-73
2024/04/02 01:26:42;;;;;;;0.10;0.10;;;;;;;-145.06;100.00;52333.31;10475774;28;20366;-73
2024/04/02 01:31:43;;;;;;;0.10;0.10;;;;;;;-145.06;100.00;52357.63;10477189;28;20389;-73
2024/04/02 01:36:43;;;;;;;0.00;0.00;;;;;;;-145.06;100.00;52355.59;10480775;28;20032;-73
2024/04/02 01:41:43;;;;;;;0.10;0.10;;;;;;;-145.06;100.00;52351.53;10471917;28;20028;-74
2024/04/02 01:46:44;;;;;;;0.10;0.10;;;;;;;-145.06;100.00;52402.16;10474792;28;20017;-72
2024/04/02 01:51:45;;;;;;;0.10;0.10;;;;;;;-145.06;100.00;52400.13;10475652;28;20107;-72
2024/04/02 01:56:45;;;;;;;0.10;0.10;;;;;;;-145.06;100.00;52400.13;10478543;28;20017;-72
2024/04/02 02:01:45;;;;;;;0.10;0.10;;;;;;;-145.06;100.00;52428.47;10474653;28;20033;-73
2024/04/02 02:06:46;;;;;;;0.10;0.10;;;;;;;-145.06;100.00;52454.78;10476521;28;20017;-72
2024/04/02 02:11:46;;;;;;;0.10;0.10;;;;;;;-145.06;100.00;52473.00;10476979;28;20541;-73
2024/04/02 02:16:49;;;;;;;0.00;0.00;;;;;;;-145.06;100.00;52466.94;10478009;28;20031;-73
2024/04/02 02:21:49;;;;;;;0.10;0.10;;;;;;;-145.06;100.00;52479.06;10478816;28;20029;-72
2024/04/02 02:26:51;;;;;;;0.03;0.03;;;;;;;-145.06;100.00;52454.78;10477664;28;20032;-72
2024/04/02 02:31:52;;;;;;;0.00;0.00;;;;;;;-145.06;100.00;52493.25;10472327;28;20021;-73
2024/04/02 02:36:53;;;;;;;0.10;0.10;;;;;;;-145.06;100.00;52487.19;10474691;28;20035;-73
2024/04/02 02:41:53;;;;;;;0.10;0.10;;;;;;;-145.06;100.00;52509.44;10472001;28;20028;-74
2024/04/02 02:46:53;;;;;;;0.10;0.10;;;;;;;-145.06;100.00;52499.31;10480007;28;20024;-72
2024/04/02 02:51:54;;;;;;;0.10;0.10;;;;;;;-145.06;100.00;52475.03;10479033;28;20342;-73
2024/04/02 02:56:54;;;;;;;0.10;0.10;;;;;;;-145.06;100.00;52487.19;10475414;28;20020;-73
2024/04/02 03:01:54;;;;;;;0.00;0.00;;;;;;;-145.06;100.00;52464.91;10475921;28;20524;-73
2024/04/02 03:06:55;;;;;;;0.00;0.00;;;;;;;-145.06;100.00;52470.97;10470004;28;20474;-73
2024/04/02 03:11:55;;;;;;;0.10;0.10;;;;;;;-145.06;100.00;52450.75;10478867;28;20070;-73
2024/04/02 03:16:55;;;;;;;0.00;0.00;;;;;;;-145.06;100.00;52462.88;10483801;28;20024;-73
2024/04/02 03:21:55;;;;;;;0.00;0.00;;;;;;;-145.06;100.00;52424.41;10487768;28;20394;-72
2024/04/02 03:26:56;;;;;;;0.07;0.07;;;;;;;-145.06;100.00;52440.63;10491132;28;20023;-73
2024/04/02 03:31:56;;;;;;;0.08;0.08;;;;;;;-145.06;100.00;52422.41;10478347;28;20067;-73
2024/04/02 03:36:56;;;;;;;0.10;0.10;;;;;;;-145.06;100.00;52428.47;10489421;28;20431;-73
2024/04/02 03:41:57;;;;;;;0.00;0.00;;;;;;;-145.06;100.00;52430.50;10481490;28;20028;-73
2024/04/02 03:46:57;;;;;;;0.10;0.10;;;;;;;-145.06;100.00;52436.56;10483658;28;20103;-73
2024/04/02 03:51:57;;;;;;;0.00;0.00;;;;;;;-145.06;100.00;52444.66;10487412;28;20165;-72
2024/04/02 03:56:57;;;;;;;0.00;0.00;;;;;;;-145.06;100.00;52418.34;10479238;28;20150;-72
2024/04/02 04:01:58;;;;;;;0.00;0.00;;;;;;;-145.06;100.00;52402.16;10454762;28;20028;-73
2024/04/02 04:06:58;;;;;;;0.05;0.05;;;;;;;-145.06;100.00;52375.84;10484258;28;20103;-73
2024/04/02 04:11:59;;;;;;;0.00;0.00;;;;;;;-145.06;100.00;52383.94;10483332;28;20498;-73
2024/04/02 04:16:59;;;;;;;0.00;0.00;;;;;;;-145.06;100.00;52361.66;10471115;28;20029;-73
2024/04/02 04:21:59;;;;;;;0.00;0.00;;;;;;;-145.06;100.00;52365.72;10483183;28;20024;-73
2024/04/02 04:26:59;;;;;;;0.10;0.10;;;;;;;-145.06;100.00;52327.25;10484667;28;20019;-73
2024/04/02 04:32:00;;;;;;;0.07;0.07;;;;;;;-145.06;100.00;52335.34;10483631;28;20012;-73
2024/04/02 04:37:00;;;;;;;0.00;0.00;;;;;;;-145.06;100.00;52339.41;10483627;28;20025;-72
2024/04/02 04:42:00;;;;;;;0.00;0.00;;;;;;;-145.06;100.00;52327.25;10479708;28;20645;-73
2024/04/02 04:47:01;;;;;;;0.10;0.10;;;;;;;-145.06;100.00;52315.09;10483728;28;20262;-73
2024/04/02 04:52:01;;;;;;;0.10;0.10;;;;;;;-145.06;100.00;52323.19;10477932;28;20383;-73
2024/04/02 04:57:02;;;;;;;0.10;0.10;;;;;;;-145.06;100.00;52323.19;10482562;28;20366;-73
2024/04/02 05:02:02;;;;;;;0.10;0.10;;;;;;;-145.06;100.00;52288.78;10478089;28;20133;-72
2024/04/02 05:07:02;;;;;;;0.00;0.00;;;;;;;-145.06;100.00;52315.09;10479910;28;20025;-73
2024/04/02 05:12:03;;;;;;;0.00;0.00;;;;;;;-145.06;100.00;52276.63;10479746;28;20043;-72
2024/04/02 05:17:03;;;;;;;0.00;0.00;;;;;;;-145.06;100.00;52296.88;10480234;28;20032;-73
2024/04/02 05:22:06;;;;;;;0.00;0.00;;;;;;;-145.06;100.00;52288.78;10475792;28;20024;-72
2024/04/02 05:27:06;;;;;;;0.00;0.00;;;;;;;-145.06;100.00;52294.84;10475689;28;20107;-72
2024/04/02 05:32:07;;;;;;;0.00;0.00;;;;;;;-145.06;100.00;52292.84;10483390;28;20119;-73
2024/04/02 05:37:07;;;;;;;0.00;0.00;;;;;;;-145.06;100.00;52335.34;10474881;28;20023;-73
2024/04/02 05:42:10;;;;;;;0.00;0.00;;;;;;;-145.06;100.00;52331.28;10477818;28;20016;-72
2024/04/02 05:47:11;;;;;;;0.03;0.03;;;;;;;-145.06;100.00;52365.72;10477217;28;20024;-73
2024/04/02 05:52:11;;;;;;;0.00;0.00;;;;;;;-145.06;100.00;52311.06;10474546;28;20024;-72
2024/04/02 05:57:15;;;;;;;0.10;0.10;;;;;;;-145.06;100.00;52341.41;10477198;28;20417;-73
2024/04/02 06:02:17;;;;;;;0.10;0.10;;;;;;;-145.06;100.00;52321.19;10470532;28;20094;-72
2024/04/02 06:07:17;;;;;;;0.10;0.10;;;;;;;-145.06;100.00;52337.38;10477751;28;20060;-72
2024/04/02 06:12:17;;;;;;;0.00;0.00;;;;;;;-145.06;100.00;52341.41;10473158;28;20087;-72
2024/04/02 06:17:18;;;;;;;0.10;0.10;;;;;;;-145.06;100.00;52365.72;10477645;28;20387;-72
2024/04/02 06:22:23;;;;;;;0.10;0.10;;;;;;;-145.06;100.00;52361.66;10475546;28;20020;-72
2024/04/02 06:27:23;;;;;;;0.03;0.03;;;;;;;-145.06;100.00;52353.56;10468014;28;20027;-72
2024/04/02 06:32:23;;;;;;;0.10;0.10;;;;;;;-145.06;100.00;52347.50;10465531;28;20499;-72
2024/04/02 06:37:24;;;;;;;0.10;0.10;;;;;;;-145.06;100.00;52341.41;10477840;28;20035;-72
2024/04/02 06:42:24;;;;;;;0.10;0.10;;;;;;;-145.06;100.00;52345.47;10474103;28;20047;-73
2024/04/02 06:47:24;;;;;;;0.10;0.10;;;;;;;-145.06;100.00;52369.75;10468309;28;20070;-72
2024/04/02 06:52:24;;;;;;;0.10;0.10;;;;;;;-145.06;100.00;52331.28;10465418;28;20112;-72
2024/04/02 06:57:25;;;;;;;0.10;0.10;;;;;;;-145.06;100.00;52317.13;10472311;28;20024;-72
2024/04/02 07:02:26;;;;;;;0.10;0.10;;;;;;;-145.06;100.00;52327.25;10470380;28;20040;-73
2024/04/02 07:07:26;;;;;;;0.10;0.10;;;;;;;-145.06;100.00;52323.19;10464523;28;20035;-73
2024/04/02 07:12:27;;;;;;;0.10;0.10;;;;;;;-145.06;100.00;52371.78;10473244;28;20517;-72
2024/04/02 07:17:27;;;;;;;0.10;0.10;;;;;;;-145.06;100.00;52361.66;10471539;28;20025;-73
2024/04/02 07:22:27;;;;;;;0.00;0.00;;;;;;;-145.06;100.00;52365.72;10475654;28;20029;-73
2024/04/02 07:27:28;;;;;;;0.10;0.10;;;;;;;-145.06;100.00;52373.81;10472390;28;20028;-72
2024/04/02 07:32:28;;;;;;;0.10;0.10;;;;;;;-145.06;100.00;52365.72;10472473;28;20025;-72
2024/04/02 07:37:28;;;;;;;0.10;0.10;;;;;;;-145.06;100.00;52392.03;10469967;28;20081;-73
2024/04/02 07:42:29;;;;;;;0.00;0.00;;;;;;;-145.06;100.00;52398.09;10477040;28;20028;-73
2024/04/02 07:47:29;;;;;;;0.10;0.10;;;;;;;-145.06;100.00;52357.63;10475165;28;20025;-73
2024/04/02 07:52:30;;;;;;;0.10;0.10;;;;;;;-145.06;100.00;52371.78;10467041;28;20266;-73
2024/04/02 07:57:30;;;;;;;0.10;0.10;;;;;;;-145.06;100.00;52375.84;10476662;28;20029;-73
2024/04/02 08:02:30;;;;;;;0.08;0.08;;;;;;;-145.06;100.00;52379.88;10481841;28;20037;-73
2024/04/02 08:07:32;;;;;;;0.10;0.10;;;;;;;-145.06;100.00;52387.97;10477913;28;20032;-73
2024/04/02 08:12:32;;;;;;;0.10;0.10;;;;;;;-145.06;100.00;52416.31;10480377;28;20024;-73
2024/04/02 08:17:33;;;;;;;0.10;0.10;;;;;;;-145.06;100.00;52414.28;10479386;28;20020;-73
2024/04/02 08:22:33;;;;;;;0.10;0.10;;;;;;;-145.06;100.00;52438.59;10477949;28;20028;-73
2024/04/02 08:27:34;;;;;;;0.08;0.08;;;;;;;-145.06;100.00;52410.25;10484946;28;20021;-73
2024/04/02 08:32:35;;;;;;;0.10;0.10;;;;;;;-145.06;100.00;52412.28;10475894;28;20023;-73
2024/04/02 08:37:36;;;;;;;0.10;0.10;;;;;;;-145.06;100.00;52375.84;10480233;28;20078;-73
2024/04/02 08:42:37;;;;;;;0.10;0.10;;;;;;;-145.06;100.00;52363.69;10479238;28;20024;-73
2024/04/02 08:47:38;;;;;;;0.00;0.00;;;;;;;-145.06;100.00;52335.34;10467816;28;20048;-72
2024/04/02 08:52:38;;;;;;;0.10;0.10;;;;;;;-145.06;100.00;52313.06;10469754;28;20118;-72
2024/04/02 08:57:40;;;;;;;0.10;0.10;;;;;;;-145.06;100.00;52240.19;10479142;28;20016;-72
2024/04/02 09:02:42;;;;;;;0.10;0.10;;;;;;;-145.06;100.00;52317.13;10475309;28;20090;-73
2024/04/02 09:07:43;;;;;;;0.10;0.10;;;;;;;-145.06;100.00;52341.41;10470044;28;20514;-73
2024/04/02 09:12:43;;;;;;;0.10;0.10;;;;;;;-145.06;100.00;52323.19;10474332;28;20120;-72
2024/04/02 09:17:43;;;;;;;0.10;0.10;;;;;;;-145.06;100.00;52286.75;10476271;28;20037;-72
2024/04/02 09:22:44;;;;;;;0.10;0.10;;;;;;;-145.06;100.00;52307.00;10477319;28;20032;-72
2024/04/02 09:27:44;;;;;;;0.10;0.10;;;;;;;-145.06;100.00;52278.66;10475377;28;20028;-72
2024/04/02 09:32:46;;;;;;;0.10;0.10;;;;;;;-145.06;100.00;52284.75;10467524;28;20556;-72
2024/04/02 09:37:50;;;;;;;0.00;0.00;;;;;;;-145.06;100.00;52286.75;10472438;28;20446;-71
2024/04/02 09:42:50;;;;;;;0.00;0.00;;;;;;;-145.06;100.00;52290.81;10470804;28;20045;-72
2024/04/02 09:47:52;;;;;;;0.00;0.00;;;;;;;-145.06;100.00;52304.97;10473301;28;20071;-71
2024/04/02 09:52:54;;;;;;;0.10;0.10;;;;;;;-145.06;100.00;52296.88;10469152;28;20532;-72
2024/04/02 09:57:56;;;;;;;0.10;0.10;;;;;;;-145.06;100.00;52329.28;10469942;28;20378;-72
2024/04/02 10:03:00;;;;;;;0.10;0.10;;;;;;;-145.06;100.00;52274.63;10473436;28;20063;-70
2024/04/02 10:08:03;;;;;;;0.00;0.00;;;;;;;-145.06;96.48;52232.09;10463377;28;20474;-69
2024/04/02 10:13:06;;;;;;;0.00;0.00;;;;;;;-145.06;93.75;52234.13;10470137;28;20416;-70
2024/04/02 10:18:07;;;;;;;0.10;0.10;;;;;;;-145.06;95.46;52189.59;10462691;28;20020;-69
2024/04/02 10:23:10;;;;;;;0.10;0.10;;;;;;;-145.06;95.17;52240.19;10474442;28;20397;-70
2024/04/02 10:28:10;;;;;;;0.00;0.00;;;;;;;-145.06;95.86;52236.16;10468348;28;20036;-71
2024/04/02 10:33:18;;;;;;;0.10;0.10;;;;;;;-145.06;95.90;52242.22;10474073;28;20031;-70
2024/04/02 10:38:19;;;;;;;0.00;0.00;;;;;;;-145.06;93.31;52195.66;10472959;28;20029;-70
2024/04/02 10:43:19;;;;;;;0.10;0.10;;;;;;;-145.06;90.59;52130.88;10472269;28;20029;-71
2024/04/02 10:48:19;;;;;;;0.00;0.00;;;;;;;-145.06;88.12;52114.69;10471418;28;20035;-70
2024/04/02 10:53:19;;;;;;;0.00;0.00;;;;;;;-145.06;82.39;52171.38;10461600;28;20064;-70
2024/04/02 10:58:20;;;;;;;0.10;0.10;;;;;;;-145.06;84.14;52191.63;10479931;28;20107;-70
2024/04/02 11:03:21;;;;;;;0.00;0.00;;;;;;;-145.06;80.43;52193.66;10469805;28;20037;-70
2024/04/02 11:08:22;;;;;;;0.10;0.10;;;;;;;-145.06;78.24;52228.06;10469599;28;20036;-70
2024/04/02 11:13:28;;;;;;;0.10;0.10;;;;;;;-145.06;77.68;52311.06;10472161;28;20024;-70
2024/04/02 11:18:28;;;;;;;0.00;0.00;;;;;;;-145.06;80.40;52270.56;10473038;28;20032;-70
2024/04/02 11:28:47;;;;;;;0.10;0.10;;;;;;;-145.06;79.89;52339.41;10471783;28;20036;-70
2024/04/02 11:33:47;;;;;;;0.10;0.10;;;;;;;-145.06;80.37;52341.41;10481516;28;20017;-71
2024/04/02 11:38:47;;;;;;;0.10;0.10;;;;;;;-145.06;81.29;52381.91;10486170;28;20017;-71
2024/04/02 11:43:48;;;;;;;0.10;0.10;;;;;;;-145.06;83.09;52365.72;10477399;28;20120;-71
2024/04/02 11:48:48;;;;;;;0.00;0.00;;;;;;;-145.06;85.46;52258.41;10480979;28;20017;-70
2024/04/02 11:53:49;;;;;;;0.05;0.05;;;;;;;-145.06;82.40;52335.34;10480846;28;20077;-71
2024/04/02 12:04:08;;;;;;;0.10;0.10;;;;;;;-145.06;87.07;52379.88;10480963;28;20066;-71
2024/04/02 12:09:08;;;;;;;0.10;0.10;;;;;;;-145.06;97.58;52398.09;10481967;28;20016;-71
2024/04/02 12:14:09;;;;;;;0.00;0.00;;;;;;;-145.06;100.00;52345.47;10480074;28;20043;-70
2024/04/02 12:19:09;;;;;;;0.10;0.10;;;;;;;-145.06;100.00;52274.63;10478345;28;20512;-70
2024/04/02 12:24:09;;;;;;;0.10;0.10;;;;;;;-145.06;96.84;52230.09;10477840;28;20016;-70
2024/04/02 12:29:10;;;;;;;0.10;0.10;;;;;;;-145.06;95.19;52274.63;10478662;28;20020;-69
2024/04/02 12:34:10;;;;;;;0.00;0.00;;;;;;;-145.06;93.99;52274.63;10477254;28;20020;-70
2024/04/02 12:39:13;;;;;;;0.00;0.00;;;;;;;-145.06;94.33;52244.25;10488760;28;20024;-70
2024/04/02 12:44:13;;;;;;;0.00;0.00;;;;;;;-145.06;90.37;52331.28;10483665;28;20120;-70
2024/04/02 12:49:14;;;;;;;0.00;0.00;;;;;;;-145.06;89.16;52323.19;10482975;28;20024;-70
2024/04/02 12:54:14;;;;;;;0.10;0.10;;;;;;;-145.06;90.78;52385.97;10474235;28;20378;-70
2024/04/02 12:59:14;;;;;;;0.10;0.10;;;;;;;-145.06;91.66;52398.09;10479875;28;20020;-70
2024/04/02 13:04:14;;;;;;;0.10;0.10;;;;;;;-145.06;93.44;52396.06;10482650;28;20021;-71
2024/04/02 13:09:15;;;;;;;0.10;0.10;;;;;;;-145.06;95.28;52452.75;10474237;28;20516;-71
2024/04/02 13:14:17;;;;;;;0.10;0.10;;;;;;;-145.06;96.74;52519.56;10480374;28;20028;-71
2024/04/02 13:19:17;;;;;;;0.10;0.10;;;;;;;-145.06;100.00;52535.75;10479394;28;20177;-71
2024/04/02 13:24:18;;;;;;;0.10;0.10;;;;;;;-145.06;100.00;52632.94;10477712;28;20028;-71
2024/04/02 13:29:18;;;;;;;0.03;0.03;;;;;;;-145.06;100.00;52669.38;10475416;28;20375;-71
2024/04/02 13:34:20;;;;;;;0.00;0.00;;;;;;;-145.06;100.00;52600.53;10473676;28;20453;-71
2024/04/02 13:39:20;;;;;;;0.10;0.10;;;;;;;-145.06;100.00;52632.94;10476924;28;20040;-72
2024/04/02 13:44:20;;;;;;;0.00;0.00;;;;;;;-145.06;100.00;52564.09;10475874;28;20031;-72
2024/04/02 13:49:21;;;;;;;0.10;0.10;;;;;;;-145.06;100.00;52485.16;10480297;28;20078;-71
2024/04/02 13:54:22;;;;;;;0.00;0.00;;;;;;;-145.06;100.00;52515.53;10475700;28;20382;-71
2024/04/02 13:59:23;;;;;;;0.00;0.00;;;;;;;-145.06;100.00;52529.69;10476303;28;20029;-72
2024/04/02 14:04:23;;;;;;;0.10;0.10;;;;;;;-145.06;100.00;52511.47;10482733;28;20032;-72
2024/04/02 14:09:23;;;;;;;0.10;0.10;;;;;;;-145.06;100.00;52499.31;10476118;28;20044;-71
2024/04/02 14:14:24;;;;;;;0.10;0.10;;;;;;;-145.06;100.00;52499.31;10473464;28;20032;-72
2024/04/02 14:19:24;;;;;;;0.10;0.10;;;;;;;-145.06;100.00;52481.09;10466357;28;20052;-71
2024/04/02 14:24:24;;;;;;;0.10;0.10;;;;;;;-145.06;100.00;52495.28;10474114;28;20275;-71
2024/04/02 14:29:25;;;;;;;0.10;0.10;;;;;;;-145.06;100.00;52519.56;10478716;28;20028;-71
2024/04/02 14:34:25;;;;;;;0.10;0.10;;;;;;;-145.06;100.00;52519.56;10467023;28;20051;-71
2024/04/02 14:39:25;;;;;;;0.10;0.10;;;;;;;-145.06;100.00;52533.75;10471288;28;20620;-72
2024/04/02 14:44:25;;;;;;;0.10;0.10;;;;;;;-145.06;100.00;52545.88;10465787;28;20074;-72
2024/04/02 14:49:26;;;;;;;0.10;0.10;;;;;;;-145.06;100.00;52511.47;10461997;28;20027;-72
2024/04/02 14:54:26;;;;;;;0.10;0.10;;;;;;;-145.06;100.00;52485.16;10474886;28;20047;-71
2024/04/02 14:59:27;;;;;;;0.10;0.10;;;;;;;-145.06;100.00;52470.97;10473897;28;20021;-72
2024/04/02 15:04:28;;;;;;;0.15;0.15;;;;;;;-145.06;100.00;52440.63;10474099;28;20028;-71
2024/04/02 15:09:28;;;;;;;0.10;0.10;;;;;;;-145.06;100.00;52483.13;10473450;28;20033;-72
2024/04/02 15:14:29;;;;;;;0.10;0.10;;;;;;;-145.06;100.00;52511.47;10437346;28;1064294;-72
2024/04/02 15:19:29;;;;;;;0.00;0.00;;;;;;;-145.06;100.00;52511.47;10478886;28;20052;-72
2024/04/02 15:24:29;;;;;;;0.10;0.10;;;;;;;-145.06;100.00;52507.41;10476861;28;20104;-72
2024/04/02 15:29:30;;;;;;;0.00;0.00;;;;;;;-145.06;100.00;52521.59;10481655;28;20070;-72
2024/04/02 15:34:30;;;;;;;0.10;0.10;;;;;;;-145.06;100.00;52485.16;10477495;28;20078;-72
2024/04/02 15:39:30;;;;;;;0.10;0.10;;;;;;;-145.06;100.00;52481.09;10478637;28;20047;-72
2024/04/02 15:44:32;;;;;;;0.10;0.10;;;;;;;-145.06;100.00;52501.34;10477800;28;20465;-72
2024/04/02 15:49:33;;;;;;;0.00;0.00;;;;;;;-145.06;100.00;52470.97;10474365;28;20440;-72
2024/04/02 15:54:33;;;;;;;0.10;0.10;;;;;;;-145.06;100.00;52422.41;10474393;28;20079;-72
2024/04/02 15:59:33;;;;;;;0.10;0.10;;;;;;;-145.06;100.00;52426.44;10476785;28;20028;-72
2024/04/02 16:04:37;;;;;;;0.10;0.10;;;;;;;-145.06;100.00;52357.63;10476763;28;20027;-72
2024/04/02 16:09:37;;;;;;;0.00;0.00;;;;;;;-145.06;100.00;52361.66;10478455;28;20017;-72
2024/04/02 16:14:37;;;;;;;0.10;0.10;;;;;;;-145.06;100.00;52309.03;10468262;28;20089;-71
2024/04/02 16:19:38;;;;;;;0.10;0.10;;;;;;;-145.06;100.00;52309.03;10477926;28;20028;-72
2024/04/02 16:24:40;;;;;;;0.10;0.10;;;;;;;-145.06;100.00;52278.66;10478093;28;20033;-71
2024/04/02 16:29:40;;;;;;;0.10;0.10;;;;;;;-145.06;100.00;52262.47;10479805;28;20024;-72
2024/04/02 16:34:40;;;;;;;0.10;0.10;;;;;;;-145.06;100.00;52252.34;10476502;28;20424;-71
2024/04/02 16:39:41;;;;;;;0.10;0.10;;;;;;;-145.06;100.00;52268.53;10481014;28;20043;-71
2024/04/02 16:44:41;;;;;;;0.10;0.10;;;;;;;-145.06;100.00;52264.50;10471957;28;20025;-71
2024/04/02 16:49:41;;;;;;;0.10;0.10;;;;;;;-145.06;100.00;52309.03;10477051;28;20020;-71
2024/04/02 16:54:42;;;;;;;0.10;0.10;;;;;;;-145.06;100.00;52274.63;10482172;28;20016;-72
2024/04/02 16:59:42;;;;;;;0.00;0.00;;;;;;;-145.06;100.00;52298.91;10478084;28;20021;-72
2024/04/02 17:04:42;;;;;;;0.10;0.10;;;;;;;-145.06;100.00;52290.81;10475822;28;20017;-71
2024/04/02 17:09:48;;;;;;;0.10;0.10;;;;;;;-145.06;100.00;52351.53;10475378;28;20035;-71
2024/04/02 17:14:48;;;;;;;0.05;0.05;;;;;;;-145.06;100.00;52341.41;10473692;28;20025;-72
2024/04/02 17:20:01;;;;;;;0.10;0.10;;;;;;;-145.06;100.00;52341.41;10480636;28;20021;-71
2024/04/02 17:25:03;;;;;;;0.10;0.10;;;;;;;-145.06;100.00;52337.38;10475662;28;20060;-71
2024/04/02 17:30:03;;;;;;;0.10;0.10;;;;;;;-145.06;100.00;52327.25;10471978;28;20017;-71
2024/04/02 17:35:04;;;;;;;0.00;0.00;;;;;;;-145.06;100.00;52317.13;10475439;28;20433;-71
2024/04/02 17:40:05;;;;;;;0.10;0.10;;;;;;;-145.06;100.00;52327.25;10484344;28;20359;-72
2024/04/02 17:45:06;;;;;;;0.10;0.10;;;;;;;-145.06;100.00;52282.72;10479784;28;20385;-72
2024/04/02 17:50:06;;;;;;;0.10;0.10;;;;;;;-145.06;100.00;52272.59;10479341;28;20021;-71
2024/04/02 17:55:07;;;;;;;0.10;0.10;;;;;;;-145.06;100.00;52264.50;10480357;28;20260;-71
2024/04/02 18:00:07;;;;;;;0.10;0.10;;;;;;;-145.06;100.00;52256.41;10473662;28;20055;-71
2024/04/02 18:05:08;;;;;;;0.00;0.00;;;;;;;-145.06;100.00;52240.19;10477503;28;20020;-71
2024/04/02 18:10:08;;;;;;;0.10;0.10;;;;;;;-145.06;100.00;52236.16;10484130;28;20106;-71
2024/04/02 18:15:09;;;;;;;0.10;0.10;;;;;;;-145.06;100.00;52197.69;10475812;28;20407;-71
2024/04/02 18:20:09;;;;;;;0.10;0.10;;;;;;;-145.06;100.00;52187.56;10474215;28;20024;-71
2024/04/02 18:25:10;;;;;;;0.10;0.10;;;;;;;-145.06;100.00;52175.44;10482045;28;20024;-72
2024/04/02 18:30:10;;;;;;;0.10;0.10;;;;;;;-145.06;100.00;52177.44;10480925;28;20008;-71
2024/04/02 18:35:10;;;;;;;0.10;0.10;;;;;;;-145.06;100.00;52149.09;10475458;28;20266;-72
2024/04/02 18:40:11;;;;;;;0.05;0.05;;;;;;;-145.06;100.00;52143.03;10481450;28;20023;-72
2024/04/02 18:45:12;;;;;;;0.00;0.00;;;;;;;-145.06;100.00;52110.66;10478912;28;20475;-72
2024/04/02 18:50:12;;;;;;;0.00;0.00;;;;;;;-145.06;100.00;52110.66;10478510;28;20086;-72
2024/04/02 18:55:12;;;;;;;0.10;0.10;;;;;;;-145.06;100.00;52098.50;10455403;28;20089;-71
2024/04/02 19:00:13;;;;;;;0.00;0.00;;;;;;;-145.06;100.00;52094.47;10473897;28;20062;-71
2024/04/02 19:05:16;;;;;;;0.10;0.10;;;;;;;-145.06;100.00;52094.47;10478148;28;20111;-71
2024/04/02 19:10:16;;;;;;;0.10;0.10;;;;;;;-145.06;100.00;52076.25;10480923;28;20662;-72
2024/04/02 19:15:17;;;;;;;0.10;0.10;;;;;;;-145.06;100.00;52029.69;10476018;28;20435;-72
2024/04/02 19:20:17;;;;;;;0.10;0.10;;;;;;;-145.06;100.00;51968.94;10476175;28;20021;-72
2024/04/02 19:25:17;;;;;;;0.10;0.10;;;;;;;-145.06;100.00;51977.06;10475425;28;20355;-72
2024/04/02 19:30:18;;;;;;;0.00;0.00;;;;;;;-145.06;100.00;51952.75;10472939;28;20021;-72
2024/04/02 19:35:19;;;;;;;0.10;0.10;;;;;;;-145.06;100.00;51962.88;10474728;28;20053;-73
2024/04/02 19:40:19;;;;;;;0.00;0.00;;;;;;;-145.06;100.00;51944.66;10466731;28;20025;-72
2024/04/02 19:45:19;;;;;;;0.00;0.00;;;;;;;-145.06;100.00;51970.97;10470806;28;20025;-72
2024/04/02 19:50:19;;;;;;;0.10;0.10;;;;;;;-145.06;100.00;51934.53;10471133;28;20021;-71
2024/04/02 19:55:21;;;;;;;0.10;0.10;;;;;;;-145.06;100.00;51936.56;10481939;28;20025;-71
2024/04/02 20:00:21;;;;;;;0.10;0.10;;;;;;;-145.06;100.00;51920.38;10475403;28;20032;-71
2024/04/02 20:05:22;;;;;;;0.10;0.10;;;;;;;-145.06;100.00;51916.31;10477435;28;20493;-72
2024/04/02 20:10:22;;;;;;;0.10;0.10;;;;;;;-145.06;100.00;51894.06;10484571;28;20040;-72
2024/04/02 20:15:24;;;;;;;0.10;0.10;;;;;;;-145.06;100.00;51904.19;10476369;28;20489;-71
2024/04/02 20:20:24;;;;;;;0.00;0.00;;;;;;;-145.06;100.00;51924.41;10477917;28;20037;-72
2024/04/02 20:25:24;;;;;;;0.00;0.00;;;;;;;-145.06;100.00;51902.16;10479093;28;20037;-73
2024/04/02 20:30:25;;;;;;;0.10;0.10;;;;;;;-145.06;100.00;51920.38;10474993;28;20028;-72
2024/04/02 20:35:25;;;;;;;0.10;0.10;;;;;;;-145.06;100.00;51879.88;10476346;28;20158;-72
2024/04/02 20:40:25;;;;;;;0.10;0.10;;;;;;;-145.06;100.00;51867.75;10478345;28;20289;-72
2024/04/02 20:45:26;;;;;;;0.10;0.10;;;;;;;-145.06;100.00;51855.59;10475052;28;20027;-72
2024/04/02 20:50:26;;;;;;;0.00;0.00;;;;;;;-145.06;100.00;51863.69;10471860;28;20025;-72
2024/04/02 20:55:26;;;;;;;0.10;0.10;;;;;;;-145.06;100.00;51859.66;10475168;28;20086;-71
2024/04/02 21:00:27;;;;;;;0.08;0.08;;;;;;;-145.06;100.00;51853.56;10471458;28;21437;-72
2024/04/02 21:05:27;;;;;;;0.08;0.08;;;;;;;-145.06;100.00;51851.56;10475012;28;20460;-71
2024/04/02 21:10:27;;;;;;;0.10;0.10;;;;;;;-145.06;100.00;51851.56;10476473;28;20444;-72
2024/04/02 21:15:28;;;;;;;0.10;0.10;;;;;;;-145.06;100.00;51841.44;10473022;28;20362;-72
2024/04/02 21:20:28;;;;;;;0.00;0.00;;;;;;;-145.06;100.00;51847.50;10479886;28;20028;-72
2024/04/02 21:25:28;;;;;;;0.10;0.10;;;;;;;-145.06;100.00;51843.47;10475584;28;20028;-72
2024/04/02 21:30:29;;;;;;;0.10;0.10;;;;;;;-145.06;100.00;51829.28;10466710;28;20266;-72
2024/04/02 21:35:29;;;;;;;0.10;0.10;;;;;;;-145.06;100.00;51851.56;10472178;28;20021;-72
2024/04/02 21:40:29;;;;;;;0.03;0.03;;;;;;;-145.06;100.00;51823.22;10478040;28;20063;-72
2024/04/02 21:45:29;;;;;;;0.10;0.10;;;;;;;-145.06;100.00;51792.84;10471997;28;20050;-72
2024/04/02 21:50:31;;;;;;;0.10;0.10;;;;;;;-145.06;100.00;51796.91;10474849;28;20020;-72
2024/04/02 21:55:31;;;;;;;0.00;0.00;;;;;;;-145.06;100.00;51758.44;10473361;28;20386;-72
2024/04/02 22:00:31;;;;;;;0.10;0.10;;;;;;;-145.06;100.00;51766.53;10476238;28;20025;-72
2024/04/02 22:05:31;;;;;;;0.10;0.10;;;;;;;-145.06;100.00;51766.53;10466451;28;20016;-72
2024/04/02 22:10:32;;;;;;;0.10;0.10;;;;;;;-145.06;100.00;51760.47;10473317;28;20029;-72
2024/04/02 22:15:33;;;;;;;0.00;0.00;;;;;;;-145.06;100.00;51742.25;10476072;28;20032;-72
2024/04/02 22:20:35;;;;;;;0.10;0.10;;;;;;;-145.06;100.00;51746.31;10466907;28;20277;-72
2024/04/02 22:25:35;;;;;;;0.10;0.10;;;;;;;-145.06;100.00;51746.31;10474183;28;20081;-72
2024/04/02 22:30:35;;;;;;;0.10;0.10;;;;;;;-145.06;100.00;51752.38;10470130;28;20086;-72
2024/04/02 22:35:36;;;;;;;0.00;0.00;;;;;;;-145.06;100.00;51705.81;10465783;28;20085;-72
2024/04/02 22:40:37;;;;;;;0.00;0.00;;;;;;;-145.06;100.00;51746.31;10478773;28;20028;-73